Time;durP1;ratioP1;P1;durP2;ratioP2;P2;SDS_P1;SDS_P2;PMS_P1;PMS_P2;Temp;Humidity;BMP_temperature;BMP_pressure;BME280_temperature;BME280_humidity;BME280_pressure;Samples;Min_cycle;Max_cycle;Signal;HPM_P1;HPM_P2
2022/06/03 00:00:07;;;;;;;6.93;4.82;;;;;;;;;;4987063;28;20045;-73
2022/06/03 00:02:51;;;;;;;6.68;4.32;;;;;;;;;;4990977;28;20026;-70
2022/06/03 00:05:23;;;;;;;6.75;4.60;;;;;;;;;;4987586;28;20034;-73
2022/06/03 00:08:06;;;;;;;9.90;4.53;;;;;;;;;;4990960;28;20117;-70
2022/06/03 00:11:00;;;;;;;7.30;4.43;;;;;;;;;;4982210;28;20022;-73
2022/06/03 00:13:28;;;;;;;5.82;4.20;;;;;;;;;;4987435;28;20014;-73
2022/06/03 00:16:18;;;;;;;5.55;4.03;;;;;;;;;;4980675;28;20018;-71
2022/06/03 00:18:51;;;;;;;5.95;4.32;;;;;;;;;;4991580;28;20046;-71
2022/06/03 00:21:26;;;;;;;5.10;4.18;;;;;;;;;;4992379;28;20096;-75
2022/06/03 00:24:03;;;;;;;4.88;3.97;;;;;;;;;;4993761;28;20026;-70
2022/06/03 00:26:47;;;;;;;5.63;4.93;;;;;;;;;;4992286;28;20025;-70
2022/06/03 00:29:18;;;;;;;7.13;4.45;;;;;;;;;;4989255;28;20025;-76
2022/06/03 00:32:02;;;;;;;6.88;5.07;;;;;;;;;;4975545;28;20117;-74
2022/06/03 00:34:46;;;;;;;6.15;4.65;;;;;;;;;;4989799;28;20054;-75
2022/06/03 00:37:34;;;;;;;7.50;4.13;;;;;;;;;;4981509;28;20552;-69
2022/06/03 00:40:18;;;;;;;7.13;4.57;;;;;;;;;;4986124;28;20021;-73
2022/06/03 00:43:02;;;;;;;4.63;4.20;;;;;;;;;;4980353;28;20555;-73
2022/06/03 00:45:36;;;;;;;8.38;4.80;;;;;;;;;;4981307;28;20030;-70
2022/06/03 00:48:34;;;;;;;7.18;3.97;;;;;;;;;;4984473;28;20049;-75
2022/06/03 00:51:11;;;;;;;14.65;5.22;;;;;;;;;;4966390;28;20085;-69
2022/06/03 00:53:49;;;;;;;5.30;4.20;;;;;;;;;;4988483;28;20446;-69
2022/06/03 00:56:32;;;;;;;4.45;3.80;;;;;;;;;;4980725;28;20089;-69
2022/06/03 00:59:04;;;;;;;5.55;3.95;;;;;;;;;;4985525;28;20657;-69
2022/06/03 01:01:29;;;;;;;6.75;4.10;;;;;;;;;;4978201;28;20026;-69
2022/06/03 01:04:16;;;;;;;5.60;3.80;;;;;;;;;;4991825;28;20342;-69
2022/06/03 01:07:00;;;;;;;8.15;4.40;;;;;;;;;;4990559;28;20038;-70
2022/06/03 01:09:38;;;;;;;6.75;4.22;;;;;;;;;;4991416;28;20038;-69
2022/06/03 01:12:09;;;;;;;6.82;3.90;;;;;;;;;;4988181;28;20033;-69
2022/06/03 01:14:34;;;;;;;10.15;4.03;;;;;;;;;;4992444;28;20046;-69
2022/06/03 01:16:59;;;;;;;4.82;4.30;;;;;;;;;;4988979;28;20069;-70
2022/06/03 01:19:42;;;;;;;7.25;4.55;;;;;;;;;;4982322;28;20136;-73
2022/06/03 01:22:20;;;;;;;5.30;4.80;;;;;;;;;;4987723;28;20018;-70
2022/06/03 01:25:01;;;;;;;6.70;4.40;;;;;;;;;;4991171;28;20048;-69
2022/06/03 01:27:42;;;;;;;6.53;4.15;;;;;;;;;;4991998;28;20022;-72
2022/06/03 01:30:13;;;;;;;5.82;4.65;;;;;;;;;;4978631;28;20033;-71
2022/06/03 01:32:38;;;;;;;5.07;4.57;;;;;;;;;;4984994;28;20109;-69
2022/06/03 01:35:12;;;;;;;7.85;5.57;;;;;;;;;;4983051;28;20161;-68
2022/06/03 01:37:47;;;;;;;6.35;5.30;;;;;;;;;;4990180;28;20038;-69
2022/06/03 01:40:26;;;;;;;8.52;5.72;;;;;;;;;;4980515;28;20042;-70
2022/06/03 01:42:54;;;;;;;9.55;6.00;;;;;;;;;;4989853;28;20065;-70
2022/06/03 01:45:28;;;;;;;7.97;5.82;;;;;;;;;;4985789;28;20030;-73
2022/06/03 01:47:58;;;;;;;11.90;6.13;;;;;;;;;;4986923;28;20071;-70
2022/06/03 01:50:43;;;;;;;6.68;5.72;;;;;;;;;;4981626;28;20357;-71
2022/06/03 01:53:18;;;;;;;6.88;5.82;;;;;;;;;;4966978;28;20038;-70
2022/06/03 01:56:01;;;;;;;6.55;5.90;;;;;;;;;;4987177;28;20055;-70
2022/06/03 01:58:35;;;;;;;7.07;5.57;;;;;;;;;;4987596;28;20947;-70
2022/06/03 02:01:04;;;;;;;6.00;5.10;;;;;;;;;;4984877;28;20034;-71
2022/06/03 02:03:32;;;;;;;9.33;6.10;;;;;;;;;;4984285;28;20088;-70
2022/06/03 02:06:10;;;;;;;5.72;5.22;;;;;;;;;;4991979;28;20157;-75
2022/06/03 02:08:48;;;;;;;7.15;5.18;;;;;;;;;;4988977;28;20033;-70
2022/06/03 02:11:32;;;;;;;6.47;5.17;;;;;;;;;;4982032;28;20026;-69
2022/06/03 02:13:57;;;;;;;5.88;4.53;;;;;;;;;;4975662;28;20022;-70
2022/06/03 02:16:23;;;;;;;5.60;4.72;;;;;;;;;;4973707;28;20037;-69
2022/06/03 02:18:57;;;;;;;6.53;4.75;;;;;;;;;;4982567;28;20033;-73
2022/06/03 02:21:25;;;;;;;5.07;3.88;;;;;;;;;;4984374;28;20038;-73
2022/06/03 02:23:50;;;;;;;5.85;4.00;;;;;;;;;;4968412;28;20022;-73
2022/06/03 02:26:27;;;;;;;4.20;3.55;;;;;;;;;;4973517;28;20034;-73
2022/06/03 02:30:24;;;;;;;4.28;3.50;;;;;;;;;;4982870;28;20022;-75
2022/06/03 02:31:44;;;;;;;5.45;3.92;;;;;;;;;;4983951;28;20062;-71
2022/06/03 02:34:10;;;;;;;5.18;4.53;;;;;;;;;;4985333;28;20057;-72
2022/06/03 02:36:50;;;;;;;5.57;4.43;;;;;;;;;;4986206;28;20057;-70
2022/06/03 02:39:24;;;;;;;4.93;4.43;;;;;;;;;;4986262;28;20037;-70
2022/06/03 02:41:53;;;;;;;5.13;4.35;;;;;;;;;;4986604;28;20030;-70
2022/06/03 02:44:33;;;;;;;5.45;3.97;;;;;;;;;;4978944;28;20034;-72
2022/06/03 02:47:18;;;;;;;5.75;4.03;;;;;;;;;;4981087;28;20025;-75
2022/06/03 02:49:43;;;;;;;5.28;4.10;;;;;;;;;;4978994;28;20018;-70
2022/06/03 02:52:27;;;;;;;5.60;4.82;;;;;;;;;;4988040;28;20033;-73
2022/06/03 02:55:11;;;;;;;7.28;5.35;;;;;;;;;;4979138;28;20145;-70
2022/06/03 02:57:55;;;;;;;7.93;5.10;;;;;;;;;;4977404;28;20046;-69
2022/06/03 03:00:25;;;;;;;5.53;4.95;;;;;;;;;;4980984;28;20022;-69
2022/06/03 03:03:06;;;;;;;6.13;5.53;;;;;;;;;;4979292;28;20029;-69
2022/06/03 03:05:40;;;;;;;6.68;4.82;;;;;;;;;;4975336;28;20034;-69
2022/06/03 03:08:15;;;;;;;7.50;4.50;;;;;;;;;;4977239;28;20038;-71
2022/06/03 03:10:50;;;;;;;7.35;4.78;;;;;;;;;;4978893;28;20111;-69
2022/06/03 03:13:15;;;;;;;7.03;5.25;;;;;;;;;;4970424;28;20037;-68
2022/06/03 03:15:59;;;;;;;7.70;5.28;;;;;;;;;;4971802;28;20023;-74
2022/06/03 03:18:37;;;;;;;5.65;5.03;;;;;;;;;;4971808;28;20038;-69
2022/06/03 03:21:05;;;;;;;6.70;5.40;;;;;;;;;;4975869;28;20357;-69
2022/06/03 03:23:46;;;;;;;7.22;5.75;;;;;;;;;;4972359;28;20034;-72
2022/06/03 03:26:30;;;;;;;8.07;5.65;;;;;;;;;;4977292;28;20022;-69
2022/06/03 03:29:13;;;;;;;6.10;5.38;;;;;;;;;;4986759;28;20393;-69
2022/06/03 03:31:42;;;;;;;5.45;4.95;;;;;;;;;;4986322;28;20026;-73
2022/06/03 03:34:10;;;;;;;6.90;5.88;;;;;;;;;;4981862;28;20029;-69
2022/06/03 03:36:58;;;;;;;6.00;5.47;;;;;;;;;;4977886;28;20021;-69
2022/06/03 03:39:24;;;;;;;7.32;5.97;;;;;;;;;;4965165;28;20350;-70
2022/06/03 03:41:49;;;;;;;6.60;5.80;;;;;;;;;;4974853;28;20030;-69
2022/06/03 03:44:26;;;;;;;10.05;5.55;;;;;;;;;;4978870;28;20030;-69
2022/06/03 03:47:11;;;;;;;8.45;6.65;;;;;;;;;;4973719;28;20034;-68
2022/06/03 03:49:36;;;;;;;9.63;5.95;;;;;;;;;;4974438;28;20453;-68
2022/06/03 03:52:34;;;;;;;8.05;6.15;;;;;;;;;;4974859;28;20113;-70
2022/06/03 03:55:18;;;;;;;8.43;6.38;;;;;;;;;;4949414;28;20097;-70
2022/06/03 03:58:02;;;;;;;7.22;6.35;;;;;;;;;;4992564;28;20125;-70
2022/06/03 04:00:39;;;;;;;7.05;5.85;;;;;;;;;;4988913;28;20038;-70
2022/06/03 04:03:16;;;;;;;7.80;6.30;;;;;;;;;;4992610;28;20172;-68
2022/06/03 04:05:57;;;;;;;7.50;6.80;;;;;;;;;;4987813;28;20109;-69
2022/06/03 04:08:22;;;;;;;11.15;7.45;;;;;;;;;;4993222;28;20481;-70
2022/06/03 04:11:05;;;;;;;7.28;6.68;;;;;;;;;;4987483;28;20050;-71
2022/06/03 04:13:49;;;;;;;14.23;7.40;;;;;;;;;;4982297;28;20029;-68
2022/06/03 04:16:17;;;;;;;7.22;6.57;;;;;;;;;;4982845;28;20025;-69
2022/06/03 04:19:01;;;;;;;8.07;7.28;;;;;;;;;;4982250;28;20034;-71
2022/06/03 04:21:29;;;;;;;8.13;7.10;;;;;;;;;;4987725;28;20197;-70
2022/06/03 04:24:01;;;;;;;8.00;7.30;;;;;;;;;;4986125;28;20049;-71
2022/06/03 04:26:42;;;;;;;10.23;7.65;;;;;;;;;;4996087;28;20492;-74
2022/06/03 04:29:07;;;;;;;8.40;7.57;;;;;;;;;;4998349;28;20037;-73
2022/06/03 04:31:44;;;;;;;7.78;6.97;;;;;;;;;;4993469;28;20040;-69
2022/06/03 04:34:13;;;;;;;10.07;7.47;;;;;;;;;;4987116;28;20065;-71
2022/06/03 04:36:38;;;;;;;9.85;7.57;;;;;;;;;;4992035;28;20364;-69
2022/06/03 04:39:22;;;;;;;8.93;7.55;;;;;;;;;;4989291;28;20452;-70
2022/06/03 04:42:14;;;;;;;8.70;7.45;;;;;;;;;;4986998;28;20764;-68
2022/06/03 04:44:58;;;;;;;8.70;7.18;;;;;;;;;;4973264;28;20085;-70
2022/06/03 04:47:26;;;;;;;9.15;7.30;;;;;;;;;;4971574;28;20041;-69
2022/06/03 04:50:10;;;;;;;9.35;6.95;;;;;;;;;;4974665;28;20053;-77
2022/06/03 04:52:38;;;;;;;7.45;6.50;;;;;;;;;;4974536;28;20022;-78
2022/06/03 04:55:21;;;;;;;8.25;5.40;;;;;;;;;;4973910;28;20041;-69
2022/06/03 04:58:05;;;;;;;9.35;5.55;;;;;;;;;;4973299;28;20055;-69
2022/06/03 05:00:52;;;;;;;6.43;4.32;;;;;;;;;;4971382;28;20030;-71
2022/06/03 05:03:40;;;;;;;5.75;4.30;;;;;;;;;;4973596;28;20879;-68
2022/06/03 05:06:05;;;;;;;8.50;4.85;;;;;;;;;;4940586;28;20077;-68
2022/06/03 05:08:47;;;;;;;7.25;4.95;;;;;;;;;;4974572;28;20145;-69
2022/06/03 05:11:12;;;;;;;11.82;7.47;;;;;;;;;;4972660;28;20038;-71
2022/06/03 05:13:55;;;;;;;8.63;7.57;;;;;;;;;;4976029;28;20034;-71
2022/06/03 05:16:39;;;;;;;11.05;6.35;;;;;;;;;;4971951;28;20034;-70
2022/06/03 05:19:43;;;;;;;7.65;5.35;;;;;;;;;;4975880;28;20053;-70
2022/06/03 05:22:17;;;;;;;8.48;5.20;;;;;;;;;;4911319;29;20037;-74
2022/06/03 05:25:01;;;;;;;5.22;4.82;;;;;;;;;;4911469;29;20036;-71
2022/06/03 05:27:45;;;;;;;6.30;5.65;;;;;;;;;;4946838;28;20054;-71
2022/06/03 05:30:10;;;;;;;6.78;5.70;;;;;;;;;;4970488;28;20026;-73
2022/06/03 05:32:56;;;;;;;7.95;5.93;;;;;;;;;;4969333;28;20022;-71
2022/06/03 05:35:36;;;;;;;7.07;6.38;;;;;;;;;;4969237;28;20021;-71
2022/06/03 05:38:12;;;;;;;8.00;6.15;;;;;;;;;;4970260;28;20038;-71
2022/06/03 05:40:44;;;;;;;5.90;5.38;;;;;;;;;;4972236;28;20030;-71
2022/06/03 05:43:09;;;;;;;6.40;5.70;;;;;;;;;;4974828;28;20461;-71
2022/06/03 05:45:37;;;;;;;7.60;5.75;;;;;;;;;;4968937;28;20034;-74
2022/06/03 05:48:03;;;;;;;8.23;6.32;;;;;;;;;;4986556;28;20030;-70
2022/06/03 05:50:37;;;;;;;6.88;5.82;;;;;;;;;;4973901;28;20096;-74
2022/06/03 05:53:02;;;;;;;10.05;5.78;;;;;;;;;;4989163;28;20034;-70
2022/06/03 05:55:48;;;;;;;5.50;5.00;;;;;;;;;;4982745;28;20457;-71
2022/06/03 05:58:13;;;;;;;8.55;5.30;;;;;;;;;;4979956;28;20498;-73
2022/06/03 06:00:47;;;;;;;6.70;6.10;;;;;;;;;;4987699;28;20057;-75
2022/06/03 06:03:28;;;;;;;7.13;5.85;;;;;;;;;;4986224;28;20085;-70
2022/06/03 06:05:56;;;;;;;5.90;5.40;;;;;;;;;;4989300;28;20022;-70
2022/06/03 06:08:28;;;;;;;7.22;5.10;;;;;;;;;;4984804;28;20069;-70
2022/06/03 06:10:53;;;;;;;7.22;5.40;;;;;;;;;;4991085;28;20023;-73
2022/06/03 06:13:37;;;;;;;5.40;4.93;;;;;;;;;;4974448;28;20049;-74
2022/06/03 06:16:10;;;;;;;6.10;5.50;;;;;;;;;;4988726;28;20104;-71
2022/06/03 06:18:38;;;;;;;6.25;5.00;;;;;;;;;;4986224;28;20037;-71
2022/06/03 06:21:09;;;;;;;11.60;6.03;;;;;;;;;;4989175;28;20022;-71
2022/06/03 06:23:45;;;;;;;6.93;5.68;;;;;;;;;;4991472;28;20072;-73
2022/06/03 06:26:10;;;;;;;7.50;5.30;;;;;;;;;;4990815;28;20036;-73
2022/06/03 06:28:46;;;;;;;9.38;5.35;;;;;;;;;;4987578;28;20034;-72
2022/06/03 06:31:18;;;;;;;9.13;6.72;;;;;;;;;;4987462;28;20044;-71
2022/06/03 06:34:02;;;;;;;6.78;5.90;;;;;;;;;;4991886;28;20101;-74
2022/06/03 06:36:46;;;;;;;7.85;7.05;;;;;;;;;;4988295;28;20438;-71
2022/06/03 06:39:22;;;;;;;8.60;6.68;;;;;;;;;;4991205;28;20096;-75
2022/06/03 06:41:47;;;;;;;10.25;7.50;;;;;;;;;;4988234;28;20053;-72
2022/06/03 06:44:16;;;;;;;8.40;6.63;;;;;;;;;;4987156;28;20442;-71
2022/06/03 06:46:57;;;;;;;10.13;7.53;;;;;;;;;;4989146;28;20040;-75
2022/06/03 06:49:30;;;;;;;7.63;6.78;;;;;;;;;;4989592;28;21225;-71
2022/06/03 06:51:56;;;;;;;10.40;7.03;;;;;;;;;;4986730;28;20433;-73
2022/06/03 06:54:21;;;;;;;11.48;7.22;;;;;;;;;;4991307;28;20048;-70
2022/06/03 06:56:49;;;;;;;10.27;7.32;;;;;;;;;;4989804;28;20053;-75
2022/06/03 06:59:23;;;;;;;8.73;6.22;;;;;;;;;;4988941;28;20338;-70
2022/06/03 07:01:53;;;;;;;8.90;6.78;;;;;;;;;;4988909;28;20812;-71
2022/06/03 07:04:24;;;;;;;7.60;6.78;;;;;;;;;;4989049;28;20020;-74
2022/06/03 07:06:53;;;;;;;8.18;6.75;;;;;;;;;;4987559;28;20036;-70
2022/06/03 07:09:30;;;;;;;9.32;6.88;;;;;;;;;;4984558;28;20038;-71
2022/06/03 07:11:58;;;;;;;7.82;6.30;;;;;;;;;;4989524;28;20066;-70
2022/06/03 07:14:29;;;;;;;6.07;5.57;;;;;;;;;;4992298;28;20036;-71
2022/06/03 07:20:05;;;;;;;6.85;6.18;;;;;;;;;;4992641;28;20053;-70
2022/06/03 07:22:33;;;;;;;6.88;6.18;;;;;;;;;;4992230;28;20177;-71
2022/06/03 07:25:05;;;;;;;6.90;6.30;;;;;;;;;;4991166;28;20026;-71
2022/06/03 07:27:42;;;;;;;7.82;6.50;;;;;;;;;;4990241;28;20030;-70
2022/06/03 07:30:10;;;;;;;6.78;6.18;;;;;;;;;;4990276;28;20053;-70
2022/06/03 07:32:40;;;;;;;7.43;5.90;;;;;;;;;;4992865;28;20078;-70
2022/06/03 07:35:19;;;;;;;7.88;6.05;;;;;;;;;;4989565;28;20034;-76
2022/06/03 07:37:52;;;;;;;5.85;5.35;;;;;;;;;;4992286;28;20038;-71
2022/06/03 07:40:29;;;;;;;5.95;5.45;;;;;;;;;;4989475;28;20029;-72
2022/06/03 07:42:55;;;;;;;5.57;5.07;;;;;;;;;;4990619;28;20014;-71
2022/06/03 07:45:39;;;;;;;6.68;4.85;;;;;;;;;;4992452;28;20034;-71
2022/06/03 07:48:06;;;;;;;5.15;4.72;;;;;;;;;;4992393;28;20073;-75
2022/06/03 07:50:46;;;;;;;5.72;5.15;;;;;;;;;;4992465;28;20271;-72
2022/06/03 07:53:17;;;;;;;5.40;4.90;;;;;;;;;;4993144;28;20160;-77
2022/06/03 07:55:42;;;;;;;4.53;4.13;;;;;;;;;;4989036;28;21079;-76
2022/06/03 07:58:09;;;;;;;6.60;4.50;;;;;;;;;;4986609;28;20034;-70
2022/06/03 08:00:36;;;;;;;6.10;4.50;;;;;;;;;;4989737;28;20079;-70
2022/06/03 08:03:07;;;;;;;6.72;4.53;;;;;;;;;;4989076;28;20045;-71
2022/06/03 08:05:33;;;;;;;4.35;3.95;;;;;;;;;;4988030;28;20022;-75
2022/06/03 08:10:59;;;;;;;5.97;3.85;;;;;;;;;;4989103;28;20045;-72
2022/06/03 08:13:43;;;;;;;4.82;3.63;;;;;;;;;;4990298;28;20034;-70
2022/06/03 08:16:14;;;;;;;3.95;3.65;;;;;;;;;;4985144;28;20033;-74
2022/06/03 08:18:40;;;;;;;4.35;3.67;;;;;;;;;;4988318;28;20172;-69
2022/06/03 08:21:32;;;;;;;7.45;4.07;;;;;;;;;;4988823;28;20378;-69
2022/06/03 08:23:58;;;;;;;4.45;3.60;;;;;;;;;;4983145;28;20109;-75
2022/06/03 08:26:26;;;;;;;4.30;3.10;;;;;;;;;;4990767;28;20345;-71
2022/06/03 08:28:55;;;;;;;3.50;3.20;;;;;;;;;;4992675;28;20100;-75
2022/06/03 08:31:22;;;;;;;5.10;3.65;;;;;;;;;;4990201;28;20026;-70
2022/06/03 08:33:50;;;;;;;3.80;3.42;;;;;;;;;;4987720;28;20098;-70
2022/06/03 08:36:18;;;;;;;3.90;3.22;;;;;;;;;;4987552;28;20034;-72
2022/06/03 08:38:55;;;;;;;3.00;2.70;;;;;;;;;;4991698;28;20034;-74
2022/06/03 08:41:20;;;;;;;6.13;3.40;;;;;;;;;;4987463;28;20058;-73
2022/06/03 08:44:01;;;;;;;3.45;2.65;;;;;;;;;;4988782;28;20049;-72
2022/06/03 08:46:27;;;;;;;3.17;2.88;;;;;;;;;;4986546;28;20058;-70
2022/06/03 08:48:53;;;;;;;3.80;2.95;;;;;;;;;;4985852;28;20037;-72
2022/06/03 08:51:19;;;;;;;3.58;2.90;;;;;;;;;;4992960;28;20414;-70
2022/06/03 08:53:48;;;;;;;5.10;3.10;;;;;;;;;;4990669;28;20033;-70
2022/06/03 08:56:16;;;;;;;3.88;3.03;;;;;;;;;;4991312;28;20125;-71
2022/06/03 08:59:01;;;;;;;3.28;2.97;;;;;;;;;;4986928;28;20092;-70
2022/06/03 09:01:29;;;;;;;4.05;2.72;;;;;;;;;;4988874;28;20089;-75
2022/06/03 09:04:00;;;;;;;4.70;2.55;;;;;;;;;;4989692;28;20109;-71
2022/06/03 09:06:26;;;;;;;3.15;2.80;;;;;;;;;;4992108;28;20030;-69
2022/06/03 09:08:54;;;;;;;5.15;3.05;;;;;;;;;;4988249;28;20040;-69
2022/06/03 09:11:26;;;;;;;4.00;2.85;;;;;;;;;;4984988;28;20635;-70
2022/06/03 09:13:54;;;;;;;3.17;2.42;;;;;;;;;;4986951;28;20058;-69
2022/06/03 09:16:20;;;;;;;3.38;2.58;;;;;;;;;;4990062;28;20038;-70
2022/06/03 09:18:55;;;;;;;3.00;2.80;;;;;;;;;;4986547;28;20036;-71
2022/06/03 09:21:23;;;;;;;2.55;2.25;;;;;;;;;;4987124;28;20030;-70
2022/06/03 09:23:52;;;;;;;3.70;2.63;;;;;;;;;;4988600;28;20112;-73
2022/06/03 09:26:17;;;;;;;;;;;;;;;;;;4987123;28;20339;-74
2022/06/03 09:28:43;;;;;;;2.57;2.33;;;;;;;;;;4989217;28;20414;-70
2022/06/03 09:31:10;;;;;;;3.75;2.70;;;;;;;;;;4987982;28;20026;-71
2022/06/03 09:33:37;;;;;;;3.67;2.70;;;;;;;;;;4985378;28;20030;-70
2022/06/03 09:36:05;;;;;;;3.63;3.15;;;;;;;;;;4974353;28;20441;-70
2022/06/03 09:38:33;;;;;;;3.65;2.50;;;;;;;;;;4985797;28;20065;-70
2022/06/03 09:41:00;;;;;;;2.88;2.55;;;;;;;;;;4991103;28;20073;-71
2022/06/03 09:43:28;;;;;;;2.40;2.05;;;;;;;;;;4989485;28;20109;-70
2022/06/03 09:45:53;;;;;;;;;;;;;;;;;;4986119;28;20422;-71
2022/06/03 09:48:21;;;;;;;2.73;2.53;;;;;;;;;;4990289;28;19924;-73
2022/06/03 09:50:48;;;;;;;4.93;2.80;;;;;;;;;;4987544;28;20033;-75
2022/06/03 09:53:16;;;;;;;4.10;2.33;;;;;;;;;;4988468;28;20772;-70
2022/06/03 09:55:47;;;;;;;2.53;2.20;;;;;;;;;;4987347;28;20018;-71
2022/06/03 09:58:15;;;;;;;3.65;2.33;;;;;;;;;;4989391;28;20054;-70
2022/06/03 10:00:41;;;;;;;;;;;;;;;;;;4985865;28;20458;-69
2022/06/03 10:03:07;;;;;;;2.70;2.22;;;;;;;;;;4986858;28;19932;-70
2022/06/03 10:05:32;;;;;;;3.08;2.42;;;;;;;;;;4986071;28;20066;-68
2022/06/03 10:08:03;;;;;;;3.72;2.78;;;;;;;;;;4987193;28;20053;-69
2022/06/03 10:13:13;;;;;;;3.05;2.50;;;;;;;;;;4986399;28;20465;-70
2022/06/03 10:18:24;;;;;;;2.78;2.58;;;;;;;;;;4988757;28;20502;-74
2022/06/03 10:20:51;;;;;;;2.30;2.10;;;;;;;;;;4987401;28;20137;-68
2022/06/03 10:23:19;;;;;;;4.93;2.60;;;;;;;;;;4980420;28;20034;-68
2022/06/03 10:25:46;;;;;;;2.80;2.50;;;;;;;;;;4976965;28;20103;-75
2022/06/03 10:28:13;;;;;;;3.08;2.67;;;;;;;;;;4955947;28;20077;-69
2022/06/03 10:30:42;;;;;;;4.43;2.60;;;;;;;;;;4980299;28;20018;-73
2022/06/03 10:33:21;;;;;;;3.15;2.65;;;;;;;;;;4970893;28;20362;-67
2022/06/03 10:35:48;;;;;;;2.67;2.20;;;;;;;;;;4985743;28;20022;-70
2022/06/03 10:38:17;;;;;;;3.20;2.58;;;;;;;;;;4988211;28;20038;-68
2022/06/03 10:40:46;;;;;;;2.78;2.50;;;;;;;;;;4989897;28;20109;-69
2022/06/03 10:43:19;;;;;;;2.70;2.50;;;;;;;;;;4983900;28;20022;-68
2022/06/03 10:45:45;;;;;;;3.05;2.50;;;;;;;;;;4986952;28;20444;-68
2022/06/03 10:48:29;;;;;;;3.75;2.60;;;;;;;;;;4990247;28;20041;-73
2022/06/03 10:51:11;;;;;;;2.80;2.58;;;;;;;;;;4990283;28;20543;-68
2022/06/03 11:02:07;;;;;;;3.40;2.42;;;;;;;;;;4992376;28;20037;-69
2022/06/03 11:04:38;;;;;;;2.50;2.30;;;;;;;;;;4977001;28;20030;-69
2022/06/03 11:07:21;;;;;;;2.90;2.63;;;;;;;;;;4988838;28;20026;-67
2022/06/03 11:09:57;;;;;;;2.70;2.30;;;;;;;;;;4990338;28;20048;-73
2022/06/03 11:12:24;;;;;;;2.80;2.60;;;;;;;;;;4992805;28;20452;-70
2022/06/03 11:14:49;;;;;;;3.85;2.50;;;;;;;;;;4990359;28;20029;-68
2022/06/03 11:17:19;;;;;;;2.80;2.60;;;;;;;;;;4993073;28;20030;-73
2022/06/03 11:19:54;;;;;;;3.90;3.08;;;;;;;;;;4990763;28;20121;-71
2022/06/03 11:22:29;;;;;;;2.95;2.50;;;;;;;;;;4992930;28;20219;-70
2022/06/03 11:24:56;;;;;;;3.13;2.60;;;;;;;;;;4989642;28;20019;-68
2022/06/03 11:27:29;;;;;;;3.28;2.67;;;;;;;;;;4993147;28;20041;-71
2022/06/03 11:29:57;;;;;;;2.83;2.25;;;;;;;;;;4993548;28;20034;-67
2022/06/03 11:32:23;;;;;;;2.58;2.38;;;;;;;;;;4991722;28;20069;-70
2022/06/03 11:34:54;;;;;;;5.40;2.60;;;;;;;;;;4992248;28;20421;-73
2022/06/03 11:37:34;;;;;;;4.88;2.70;;;;;;;;;;4991243;28;20058;-72
2022/06/03 11:40:06;;;;;;;3.10;2.45;;;;;;;;;;4989526;28;20043;-70
2022/06/03 11:42:36;;;;;;;5.05;2.65;;;;;;;;;;4979817;28;20049;-69
2022/06/03 11:45:13;;;;;;;2.60;2.40;;;;;;;;;;4990255;28;20089;-68
2022/06/03 11:47:41;;;;;;;2.63;2.30;;;;;;;;;;4992225;28;20018;-69
2022/06/03 11:50:08;;;;;;;2.10;1.95;;;;;;;;;;4988131;28;20264;-67
2022/06/03 11:52:34;;;;;;;2.38;2.17;;;;;;;;;;4990203;28;20410;-69
2022/06/03 11:54:59;;;;;;;3.28;2.70;;;;;;;;;;4990896;28;20505;-70
2022/06/03 11:57:25;;;;;;;3.13;2.22;;;;;;;;;;4993396;28;20045;-68
2022/06/03 12:00:01;;;;;;;4.25;2.00;;;;;;;;;;4989971;28;20077;-66
2022/06/03 12:02:44;;;;;;;2.63;2.22;;;;;;;;;;4988753;28;20033;-67
2022/06/03 12:05:19;;;;;;;2.40;2.20;;;;;;;;;;4983717;28;20034;-67
2022/06/03 12:08:03;;;;;;;4.03;2.45;;;;;;;;;;4975513;28;20377;-68
2022/06/03 12:11:04;;;;;;;2.50;2.30;;;;;;;;;;4978489;28;21496;-68
2022/06/03 12:13:31;;;;;;;2.42;2.22;;;;;;;;;;4920510;29;20771;-68
2022/06/03 12:15:56;;;;;;;3.78;2.30;;;;;;;;;;4974613;28;20035;-67
2022/06/03 12:18:31;;;;;;;3.70;2.28;;;;;;;;;;4988557;28;20100;-68
2022/06/03 12:20:58;;;;;;;3.80;3.28;;;;;;;;;;4987381;28;20030;-69
2022/06/03 12:23:23;;;;;;;2.42;2.20;;;;;;;;;;4990750;28;20837;-67
2022/06/03 12:25:48;;;;;;;2.70;2.50;;;;;;;;;;4992248;28;20562;-70
2022/06/03 12:28:18;;;;;;;2.50;2.30;;;;;;;;;;4989427;28;20038;-68
2022/06/03 12:30:52;;;;;;;2.58;2.38;;;;;;;;;;4988888;28;20255;-71
2022/06/03 12:33:21;;;;;;;2.83;2.63;;;;;;;;;;4987960;28;20044;-71
2022/06/03 12:35:52;;;;;;;3.03;2.60;;;;;;;;;;4989722;28;20053;-68
2022/06/03 12:38:20;;;;;;;2.40;2.20;;;;;;;;;;4990309;28;20041;-69
2022/06/03 12:40:46;;;;;;;2.30;2.10;;;;;;;;;;4990506;28;20038;-69
2022/06/03 12:43:30;;;;;;;2.92;2.42;;;;;;;;;;4985845;28;20049;-69
2022/06/03 12:46:04;;;;;;;2.95;2.65;;;;;;;;;;4988178;28;20030;-68
2022/06/03 12:48:51;;;;;;;2.67;2.47;;;;;;;;;;4989947;28;20466;-71
2022/06/03 12:51:29;;;;;;;3.40;2.55;;;;;;;;;;4987471;28;20061;-68
2022/06/03 12:53:58;;;;;;;3.25;2.92;;;;;;;;;;4988704;28;20023;-68
2022/06/03 12:56:45;;;;;;;2.50;2.30;;;;;;;;;;4984197;28;20086;-66
2022/06/03 12:59:29;;;;;;;2.33;2.13;;;;;;;;;;4983684;28;20085;-67
2022/06/03 13:02:00;;;;;;;4.18;3.05;;;;;;;;;;4990256;28;20034;-71
2022/06/03 13:04:38;;;;;;;2.90;2.60;;;;;;;;;;4989145;28;20113;-69
2022/06/03 13:07:09;;;;;;;3.38;2.30;;;;;;;;;;4989276;28;20041;-66
2022/06/03 13:10:07;;;;;;;3.00;2.53;;;;;;;;;;4987933;28;20082;-66
2022/06/03 13:12:32;;;;;;;4.70;2.22;;;;;;;;;;4970450;28;20496;-69
2022/06/03 13:15:16;;;;;;;4.03;2.75;;;;;;;;;;4990889;28;20019;-68
2022/06/03 13:18:02;;;;;;;2.78;2.13;;;;;;;;;;4984707;28;20080;-73
2022/06/03 13:20:47;;;;;;;3.13;2.80;;;;;;;;;;4977676;28;20038;-69
2022/06/03 13:23:19;;;;;;;3.17;2.85;;;;;;;;;;4979394;28;20033;-69
2022/06/03 13:25:45;;;;;;;3.03;2.83;;;;;;;;;;4974643;28;20056;-72
2022/06/03 13:28:33;;;;;;;4.55;2.70;;;;;;;;;;4990691;28;20026;-69
2022/06/03 13:31:11;;;;;;;3.63;3.10;;;;;;;;;;4971957;28;20623;-71
2022/06/03 13:33:55;;;;;;;3.67;3.38;;;;;;;;;;4993463;28;20022;-69
2022/06/03 13:36:31;;;;;;;3.25;2.95;;;;;;;;;;4986879;28;20026;-70
2022/06/03 13:38:57;;;;;;;4.15;2.90;;;;;;;;;;4974550;28;20124;-69
2022/06/03 13:44:37;;;;;;;3.47;3.08;;;;;;;;;;4977896;28;20053;-68
2022/06/03 13:47:06;;;;;;;3.65;3.35;;;;;;;;;;4987726;28;20036;-71
2022/06/03 13:49:31;;;;;;;4.20;3.25;;;;;;;;;;4987424;28;20104;-69
2022/06/03 13:52:05;;;;;;;4.03;3.28;;;;;;;;;;4972457;28;20034;-70
2022/06/03 13:54:36;;;;;;;3.63;3.25;;;;;;;;;;4984797;28;20030;-68
2022/06/03 13:57:17;;;;;;;3.38;3.08;;;;;;;;;;4987640;28;20053;-68
2022/06/03 13:59:42;;;;;;;4.55;3.50;;;;;;;;;;4987794;28;20065;-69
2022/06/03 14:02:11;;;;;;;3.78;3.22;;;;;;;;;;4988353;28;20077;-69
2022/06/03 14:04:44;;;;;;;3.47;2.95;;;;;;;;;;4989155;28;20025;-69
2022/06/03 14:07:09;;;;;;;3.40;3.10;;;;;;;;;;4986692;28;20026;-74
2022/06/03 14:09:49;;;;;;;3.10;2.90;;;;;;;;;;4984395;28;20038;-70
2022/06/03 14:12:20;;;;;;;5.85;3.45;;;;;;;;;;4983805;28;20018;-69
2022/06/03 14:15:04;;;;;;;3.72;3.42;;;;;;;;;;4986547;28;20022;-69
2022/06/03 14:17:47;;;;;;;5.40;3.63;;;;;;;;;;4985616;28;20034;-74
2022/06/03 14:20:28;;;;;;;4.50;3.35;;;;;;;;;;4988474;28;20046;-69
2022/06/03 14:23:00;;;;;;;5.22;3.50;;;;;;;;;;4991878;28;20410;-70
2022/06/03 14:25:52;;;;;;;3.63;3.30;;;;;;;;;;4987556;28;20050;-70
2022/06/03 14:28:23;;;;;;;6.85;3.60;;;;;;;;;;4975691;28;20097;-70
2022/06/03 14:31:09;;;;;;;9.07;4.32;;;;;;;;;;4987665;28;20018;-68
2022/06/03 14:33:39;;;;;;;4.18;3.70;;;;;;;;;;4990292;28;20442;-69
2022/06/03 14:36:06;;;;;;;4.40;3.90;;;;;;;;;;4987325;28;20034;-71
2022/06/03 14:38:38;;;;;;;4.60;4.10;;;;;;;;;;4986298;28;20088;-70
2022/06/03 14:41:07;;;;;;;7.40;3.50;;;;;;;;;;4990626;28;20757;-68
2022/06/03 14:43:34;;;;;;;7.85;3.92;;;;;;;;;;4989177;28;20481;-72
2022/06/03 14:46:04;;;;;;;4.38;3.72;;;;;;;;;;4989097;28;20490;-70
2022/06/03 14:48:34;;;;;;;4.07;3.67;;;;;;;;;;4985481;28;20038;-70
2022/06/03 14:51:13;;;;;;;4.10;3.33;;;;;;;;;;4986138;28;20054;-74
2022/06/03 14:53:41;;;;;;;4.18;3.10;;;;;;;;;;4987520;28;20046;-69
2022/06/03 14:56:12;;;;;;;3.83;3.40;;;;;;;;;;4987175;28;20133;-71
2022/06/03 14:58:43;;;;;;;4.57;3.50;;;;;;;;;;4985241;28;20101;-74
2022/06/03 15:01:27;;;;;;;4.88;3.53;;;;;;;;;;4988814;28;20180;-69
2022/06/03 15:04:04;;;;;;;3.58;3.17;;;;;;;;;;4988431;28;20042;-69
2022/06/03 15:06:39;;;;;;;3.72;3.42;;;;;;;;;;4986942;28;20045;-70
2022/06/03 15:09:04;;;;;;;4.07;3.60;;;;;;;;;;4988961;28;20034;-72
2022/06/03 15:11:50;;;;;;;4.30;3.83;;;;;;;;;;4989412;28;20810;-69
2022/06/03 15:14:20;;;;;;;4.30;3.38;;;;;;;;;;4987085;28;20053;-67
2022/06/03 15:16:57;;;;;;;4.40;3.75;;;;;;;;;;4988873;28;20022;-66
2022/06/03 15:19:36;;;;;;;4.13;3.67;;;;;;;;;;4986792;28;20034;-68
2022/06/03 15:22:02;;;;;;;4.95;3.90;;;;;;;;;;4987334;28;20026;-68
2022/06/03 15:24:28;;;;;;;4.53;3.60;;;;;;;;;;4990129;28;20041;-72
2022/06/03 15:26:55;;;;;;;4.13;3.70;;;;;;;;;;4989748;28;20346;-72
2022/06/03 15:29:22;;;;;;;3.60;3.30;;;;;;;;;;4987573;28;20112;-68
2022/06/03 15:31:49;;;;;;;4.20;3.45;;;;;;;;;;4988823;28;20018;-70
2022/06/03 15:34:18;;;;;;;3.83;3.40;;;;;;;;;;4989397;28;20137;-70
2022/06/03 15:36:43;;;;;;;;;;;;;;;;;;4990308;28;20022;-69
2022/06/03 15:39:18;;;;;;;4.23;3.63;;;;;;;;;;4993207;28;19921;-72
2022/06/03 15:41:45;;;;;;;4.28;3.83;;;;;;;;;;4993009;28;20022;-69
2022/06/03 15:44:10;;;;;;;6.10;3.80;;;;;;;;;;4991792;28;20105;-73